Time;durP1;ratioP1;P1;durP2;ratioP2;P2;SDS_P1;SDS_P2;PMS_P1;PMS_P2;Temp;Humidity;BMP_temperature;BMP_pressure;BME280_temperature;BME280_humidity;BME280_pressure;Samples;Min_cycle;Max_cycle;Signal;HPM_P1;HPM_P2
2023/11/05 00:01:59;;;;;;;16.92;2.22;;;;;;;;;;5087238;28;20062;-73
2023/11/05 00:04:25;;;;;;;12.50;2.00;;;;;;;;;;5097328;28;20131;-73
2023/11/05 00:06:52;;;;;;;7.63;1.42;;;;;;;;;;5080556;28;20058;-73
2023/11/05 00:09:18;;;;;;;7.72;1.70;;;;;;;;;;5100391;27;20039;-73
2023/11/05 00:11:44;;;;;;;11.95;2.47;;;;;;;;;;5087698;28;20048;-73
2023/11/05 00:14:11;;;;;;;10.60;2.22;;;;;;;;;;5096409;28;20048;-74
2023/11/05 00:16:37;;;;;;;9.82;1.90;;;;;;;;;;5105496;27;20100;-73
2023/11/05 00:19:04;;;;;;;11.57;2.13;;;;;;;;;;5081332;28;20048;-73
2023/11/05 00:21:31;;;;;;;11.23;2.10;;;;;;;;;;5084746;28;20155;-73
2023/11/05 00:23:58;;;;;;;6.53;1.73;;;;;;;;;;5091912;28;20132;-73
2023/11/05 00:26:24;;;;;;;12.82;2.20;;;;;;;;;;5102476;28;20087;-73
2023/11/05 00:28:50;;;;;;;16.60;2.38;;;;;;;;;;5103022;28;20048;-74
2023/11/05 00:31:17;;;;;;;14.27;1.85;;;;;;;;;;5074345;28;20432;-74
2023/11/05 00:33:43;;;;;;;8.68;1.70;;;;;;;;;;5103118;28;20047;-74
2023/11/05 00:36:10;;;;;;;12.73;2.08;;;;;;;;;;5101590;28;20054;-74
2023/11/05 00:38:37;;;;;;;9.98;1.80;;;;;;;;;;5099236;28;20105;-74
2023/11/05 00:41:04;;;;;;;13.02;2.15;;;;;;;;;;5083937;28;20054;-73
2023/11/05 00:43:30;;;;;;;8.25;2.33;;;;;;;;;;5079018;28;20047;-73
2023/11/05 00:45:57;;;;;;;11.98;1.92;;;;;;;;;;5102356;28;20055;-73
2023/11/05 00:48:23;;;;;;;7.43;1.75;;;;;;;;;;5094191;28;20208;-73
2023/11/05 00:50:50;;;;;;;6.75;1.48;;;;;;;;;;5090236;28;20059;-73
2023/11/05 00:53:16;;;;;;;9.15;1.70;;;;;;;;;;5082989;28;20059;-73
2023/11/05 00:55:43;;;;;;;13.45;2.45;;;;;;;;;;5100836;28;20155;-73
2023/11/05 00:58:09;;;;;;;9.77;1.88;;;;;;;;;;5109183;27;20138;-74
2023/11/05 01:00:36;;;;;;;9.27;1.65;;;;;;;;;;5083998;28;20063;-73
2023/11/05 01:03:03;;;;;;;8.25;1.55;;;;;;;;;;5096223;28;20063;-73
2023/11/05 01:05:29;;;;;;;13.05;2.03;;;;;;;;;;5082144;27;20559;-73
2023/11/05 01:07:56;;;;;;;11.13;2.35;;;;;;;;;;5103518;27;20048;-74
2023/11/05 01:10:22;;;;;;;7.65;2.08;;;;;;;;;;5092332;28;20067;-73
2023/11/05 01:12:50;;;;;;;6.93;1.75;;;;;;;;;;5094605;28;20400;-73
2023/11/05 01:15:16;;;;;;;6.78;1.65;;;;;;;;;;5089064;28;20044;-73
2023/11/05 01:17:43;;;;;;;20.35;2.38;;;;;;;;;;5077623;28;20466;-73
2023/11/05 01:20:09;;;;;;;11.98;1.80;;;;;;;;;;5078542;28;20188;-73
2023/11/05 01:22:36;;;;;;;14.25;2.63;;;;;;;;;;5099720;28;20055;-73
2023/11/05 01:25:03;;;;;;;9.68;1.73;;;;;;;;;;5101077;28;20130;-73
2023/11/05 01:27:29;;;;;;;10.23;1.77;;;;;;;;;;5080202;28;20047;-73
2023/11/05 01:29:56;;;;;;;10.40;1.92;;;;;;;;;;5099150;28;20553;-73
2023/11/05 01:32:22;;;;;;;12.82;2.72;;;;;;;;;;5089616;28;20558;-73
2023/11/05 01:34:49;;;;;;;7.88;1.98;;;;;;;;;;5098821;28;20130;-72
2023/11/05 01:37:15;;;;;;;9.45;1.70;;;;;;;;;;5100601;28;20202;-74
2023/11/05 01:39:42;;;;;;;10.52;1.58;;;;;;;;;;5089868;28;20048;-74
2023/11/05 01:42:08;;;;;;;15.98;1.92;;;;;;;;;;5080494;28;20075;-73
2023/11/05 01:44:34;;;;;;;9.13;1.83;;;;;;;;;;5083521;28;20051;-74
2023/11/05 01:47:01;;;;;;;9.73;2.10;;;;;;;;;;5082141;28;20055;-74
2023/11/05 01:49:27;;;;;;;14.15;2.15;;;;;;;;;;5093641;28;20096;-73
2023/11/05 01:51:54;;;;;;;9.85;1.52;;;;;;;;;;5105614;28;20059;-73
2023/11/05 01:54:21;;;;;;;8.60;1.58;;;;;;;;;;5100180;28;20093;-74
2023/11/05 01:56:47;;;;;;;11.30;1.45;;;;;;;;;;5094938;28;20044;-75
2023/11/05 01:59:14;;;;;;;11.32;1.73;;;;;;;;;;5082899;28;20547;-75
2023/11/05 02:01:45;;;;;;;9.70;1.95;;;;;;;;;;5101688;28;20052;-75
2023/11/05 02:04:11;;;;;;;9.30;1.73;;;;;;;;;;5097878;28;20552;-75
2023/11/05 02:06:38;;;;;;;7.93;1.73;;;;;;;;;;5097033;27;20048;-75
2023/11/05 02:09:04;;;;;;;14.45;1.42;;;;;;;;;;5070209;28;20096;-75
2023/11/05 02:11:31;;;;;;;9.85;1.60;;;;;;;;;;5075394;28;20047;-75
2023/11/05 02:13:57;;;;;;;8.80;1.80;;;;;;;;;;5099106;28;20043;-75
2023/11/05 02:16:31;;;;;;;9.88;1.98;;;;;;;;;;5081796;28;20048;-74
2023/11/05 02:18:59;;;;;;;9.18;1.60;;;;;;;;;;5098641;28;20054;-74
2023/11/05 02:21:27;;;;;;;7.75;1.73;;;;;;;;;;5096971;28;20609;-75
2023/11/05 02:23:54;;;;;;;11.90;2.38;;;;;;;;;;5100010;28;20101;-74
2023/11/05 02:26:20;;;;;;;8.88;1.83;;;;;;;;;;5090678;28;20055;-75
2023/11/05 02:28:47;;;;;;;7.93;1.48;;;;;;;;;;5096263;28;20043;-75
2023/11/05 02:31:13;;;;;;;8.82;1.77;;;;;;;;;;5100432;28;20092;-75
2023/11/05 02:33:41;;;;;;;12.00;1.40;;;;;;;;;;5095123;28;20043;-75
2023/11/05 02:36:08;;;;;;;9.93;1.70;;;;;;;;;;5078566;28;20496;-75
2023/11/05 02:38:35;;;;;;;9.93;2.05;;;;;;;;;;5094604;28;20572;-74
2023/11/05 02:41:01;;;;;;;6.35;1.40;;;;;;;;;;5079772;28;20126;-76
2023/11/05 02:43:28;;;;;;;7.18;1.20;;;;;;;;;;5099763;28;20070;-75
2023/11/05 02:45:54;;;;;;;8.05;1.48;;;;;;;;;;5081219;28;20644;-75
2023/11/05 02:48:21;;;;;;;8.50;0.95;;;;;;;;;;5080418;28;20051;-75
2023/11/05 02:50:47;;;;;;;6.38;1.83;;;;;;;;;;5100313;28;20046;-73
2023/11/05 02:53:15;;;;;;;12.35;1.95;;;;;;;;;;5090104;28;20050;-73
2023/11/05 02:55:42;;;;;;;6.57;1.30;;;;;;;;;;5082676;28;20495;-73
2023/11/05 02:58:11;;;;;;;7.35;1.65;;;;;;;;;;5096282;28;20121;-73
2023/11/05 03:00:37;;;;;;;8.23;1.58;;;;;;;;;;5092693;28;20052;-73
2023/11/05 03:03:03;;;;;;;9.60;2.17;;;;;;;;;;5100456;28;20089;-73
2023/11/05 03:05:30;;;;;;;5.00;0.98;;;;;;;;;;5083726;28;20208;-74
2023/11/05 03:07:56;;;;;;;9.77;1.90;;;;;;;;;;5096761;28;20407;-73
2023/11/05 03:10:23;;;;;;;8.95;1.83;;;;;;;;;;5077736;28;20059;-73
2023/11/05 03:12:49;;;;;;;3.83;1.33;;;;;;;;;;5099438;28;20043;-73
2023/11/05 03:15:16;;;;;;;8.43;1.27;;;;;;;;;;5091576;28;20136;-73
2023/11/05 03:17:42;;;;;;;8.82;1.38;;;;;;;;;;5083125;28;20097;-73
2023/11/05 03:20:09;;;;;;;5.97;1.45;;;;;;;;;;5084343;28;20144;-73
2023/11/05 03:22:36;;;;;;;5.80;1.42;;;;;;;;;;5096266;28;20607;-73
2023/11/05 03:25:03;;;;;;;8.45;1.40;;;;;;;;;;5101730;28;20055;-73
2023/11/05 03:27:30;;;;;;;8.77;1.65;;;;;;;;;;5103592;28;20047;-73
2023/11/05 03:29:56;;;;;;;4.43;1.08;;;;;;;;;;5078387;28;20051;-73
2023/11/05 03:32:23;;;;;;;7.93;1.35;;;;;;;;;;5097007;28;20108;-73
2023/11/05 03:34:49;;;;;;;6.78;1.20;;;;;;;;;;5081228;28;20048;-73
2023/11/05 03:37:16;;;;;;;10.57;2.08;;;;;;;;;;5079087;28;20133;-73
2023/11/05 03:39:44;;;;;;;4.45;1.20;;;;;;;;;;5097438;28;20411;-73
2023/11/05 03:42:10;;;;;;;5.17;0.93;;;;;;;;;;5082040;28;20056;-73
2023/11/05 03:44:36;;;;;;;5.15;0.95;;;;;;;;;;5099826;28;20052;-73
2023/11/05 03:47:03;;;;;;;7.75;1.20;;;;;;;;;;5104435;28;20051;-73
2023/11/05 03:49:30;;;;;;;5.57;0.88;;;;;;;;;;5085267;28;20116;-73
2023/11/05 03:51:58;;;;;;;4.68;1.02;;;;;;;;;;5104175;28;20124;-72
2023/11/05 03:54:24;;;;;;;5.45;1.00;;;;;;;;;;5086875;28;20539;-73
2023/11/05 03:56:51;;;;;;;5.22;1.45;;;;;;;;;;5101996;28;20051;-73
2023/11/05 03:59:17;;;;;;;4.15;0.98;;;;;;;;;;5103658;28;20051;-73
2023/11/05 04:01:47;;;;;;;7.32;1.38;;;;;;;;;;5078607;28;20090;-72
2023/11/05 04:04:14;;;;;;;11.15;1.00;;;;;;;;;;5101135;28;20199;-73
2023/11/05 04:06:40;;;;;;;4.07;1.00;;;;;;;;;;5079624;28;20054;-73
2023/11/05 04:09:07;;;;;;;2.60;0.63;;;;;;;;;;5098782;28;20112;-73
2023/11/05 04:11:34;;;;;;;0.60;0.57;;;;;;;;;;5094109;28;20071;-73
2023/11/05 04:14:00;;;;;;;3.33;0.80;;;;;;;;;;5081908;28;20047;-73
2023/11/05 04:16:27;;;;;;;2.80;0.93;;;;;;;;;;5097378;28;20578;-73
2023/11/05 04:18:53;;;;;;;3.63;1.08;;;;;;;;;;5111005;27;20052;-73
2023/11/05 04:21:20;;;;;;;10.40;1.02;;;;;;;;;;5098668;27;20048;-73
2023/11/05 04:23:46;;;;;;;4.70;0.85;;;;;;;;;;5096581;28;20060;-73
2023/11/05 04:26:13;;;;;;;3.60;1.10;;;;;;;;;;5086224;28;20047;-73
2023/11/05 04:28:40;;;;;;;4.22;1.15;;;;;;;;;;5089727;28;20055;-73
2023/11/05 04:31:07;;;;;;;3.25;0.90;;;;;;;;;;5100091;27;20056;-73
2023/11/05 04:33:33;;;;;;;3.55;0.80;;;;;;;;;;5094249;28;20043;-73
2023/11/05 04:35:59;;;;;;;4.00;1.00;;;;;;;;;;5098324;28;20054;-73
2023/11/05 04:38:26;;;;;;;4.85;0.90;;;;;;;;;;5084065;28;20093;-73
2023/11/05 04:40:52;;;;;;;5.07;1.15;;;;;;;;;;5087207;28;20063;-73
2023/11/05 04:43:19;;;;;;;2.38;0.68;;;;;;;;;;5074058;28;20431;-73
2023/11/05 04:45:45;;;;;;;4.93;1.33;;;;;;;;;;5098169;28;20070;-73
2023/11/05 04:48:12;;;;;;;4.22;1.00;;;;;;;;;;5100261;28;20083;-74
2023/11/05 04:50:39;;;;;;;4.28;1.35;;;;;;;;;;5080678;28;20048;-73
2023/11/05 04:53:08;;;;;;;3.72;0.95;;;;;;;;;;5103270;27;20063;-73
2023/11/05 04:55:35;;;;;;;5.88;1.05;;;;;;;;;;5103236;28;20039;-73
2023/11/05 04:58:01;;;;;;;2.60;0.90;;;;;;;;;;5078015;28;20051;-73
2023/11/05 05:00:29;;;;;;;6.10;1.00;;;;;;;;;;5092835;28;20044;-73
2023/11/05 05:02:55;;;;;;;7.83;1.90;;;;;;;;;;5065873;28;20467;-73
2023/11/05 05:05:22;;;;;;;4.10;1.10;;;;;;;;;;5088063;28;20134;-74
2023/11/05 05:07:48;;;;;;;3.78;1.20;;;;;;;;;;5102985;27;20062;-73
2023/11/05 05:10:15;;;;;;;5.03;1.02;;;;;;;;;;5077480;28;20079;-74
2023/11/05 05:12:42;;;;;;;2.05;0.70;;;;;;;;;;5102257;28;20067;-73
2023/11/05 05:15:08;;;;;;;3.63;1.10;;;;;;;;;;5081450;28;20051;-74
2023/11/05 05:17:35;;;;;;;5.07;1.15;;;;;;;;;;5083505;28;20054;-74
2023/11/05 05:20:04;;;;;;;2.78;0.90;;;;;;;;;;5094535;28;20056;-74
2023/11/05 05:22:30;;;;;;;4.25;1.00;;;;;;;;;;5082679;28;20055;-73
2023/11/05 05:24:56;;;;;;;3.30;0.95;;;;;;;;;;5078549;28;20567;-73
2023/11/05 05:27:23;;;;;;;5.20;0.98;;;;;;;;;;5099750;28;20055;-73
2023/11/05 05:29:52;;;;;;;3.58;0.95;;;;;;;;;;5102104;28;20047;-74
2023/11/05 05:32:19;;;;;;;4.78;1.00;;;;;;;;;;5089215;28;20631;-74
2023/11/05 05:34:45;;;;;;;4.68;0.90;;;;;;;;;;5098535;28;20066;-74
2023/11/05 05:37:13;;;;;;;4.55;1.10;;;;;;;;;;5096321;28;20066;-74
2023/11/05 05:39:39;;;;;;;7.32;1.45;;;;;;;;;;5097101;28;20047;-74
2023/11/05 05:42:06;;;;;;;2.10;1.08;;;;;;;;;;5069370;28;20145;-74
2023/11/05 05:44:33;;;;;;;6.10;1.20;;;;;;;;;;5071788;28;20156;-74
2023/11/05 05:47:00;;;;;;;3.88;0.88;;;;;;;;;;5102068;28;20134;-74
2023/11/05 05:49:26;;;;;;;4.90;1.10;;;;;;;;;;5101533;28;20051;-74
2023/11/05 05:51:53;;;;;;;7.85;1.25;;;;;;;;;;5099070;28;20713;-74
2023/11/05 05:54:21;;;;;;;4.10;1.17;;;;;;;;;;5083788;28;20051;-74
2023/11/05 05:56:48;;;;;;;4.10;1.23;;;;;;;;;;5102828;28;20408;-74
2023/11/05 05:59:14;;;;;;;5.05;1.48;;;;;;;;;;5101650;28;20052;-74
2023/11/05 06:01:41;;;;;;;3.63;1.23;;;;;;;;;;5098385;28;20094;-74
2023/11/05 06:04:07;;;;;;;6.32;1.52;;;;;;;;;;5087542;28;20100;-74
2023/11/05 06:06:34;;;;;;;3.15;1.20;;;;;;;;;;5087740;28;20557;-74
2023/11/05 06:09:00;;;;;;;6.10;1.67;;;;;;;;;;5096546;28;20130;-74
2023/11/05 06:11:27;;;;;;;4.93;1.30;;;;;;;;;;5095763;28;20047;-74
2023/11/05 06:13:54;;;;;;;5.45;1.80;;;;;;;;;;5073659;28;20404;-74
2023/11/05 06:16:21;;;;;;;4.70;1.30;;;;;;;;;;5094921;28;20051;-74
2023/11/05 06:18:48;;;;;;;4.45;1.52;;;;;;;;;;5088001;28;20052;-73
2023/11/05 06:21:15;;;;;;;4.47;1.10;;;;;;;;;;5080266;28;20139;-73
2023/11/05 06:23:42;;;;;;;4.20;1.27;;;;;;;;;;5086866;28;20048;-73
2023/11/05 06:26:08;;;;;;;6.45;1.98;;;;;;;;;;5096254;28;20047;-73
2023/11/05 06:28:35;;;;;;;5.78;1.63;;;;;;;;;;5073970;28;20047;-73
2023/11/05 06:31:01;;;;;;;4.20;1.13;;;;;;;;;;5082668;28;20051;-73
2023/11/05 06:33:33;;;;;;;6.43;1.33;;;;;;;;;;5079795;28;20528;-74
2023/11/05 06:36:01;;;;;;;3.50;1.05;;;;;;;;;;5096429;28;20040;-73
2023/11/05 06:38:28;;;;;;;5.70;1.30;;;;;;;;;;5092146;28;20047;-74
2023/11/05 06:40:54;;;;;;;4.82;1.25;;;;;;;;;;5074985;28;20105;-73
2023/11/05 06:43:20;;;;;;;5.85;1.50;;;;;;;;;;5090576;28;20047;-74
2023/11/05 06:45:47;;;;;;;6.03;1.52;;;;;;;;;;5083779;28;20048;-74
2023/11/05 06:48:13;;;;;;;4.40;1.25;;;;;;;;;;5071810;28;20492;-74
2023/11/05 06:50:40;;;;;;;6.50;1.70;;;;;;;;;;5081907;28;20083;-74
2023/11/05 06:53:06;;;;;;;3.50;1.60;;;;;;;;;;5099025;28;20083;-73
2023/11/05 06:55:32;;;;;;;5.93;1.63;;;;;;;;;;5075503;28;20058;-73
2023/11/05 06:57:59;;;;;;;6.53;1.58;;;;;;;;;;5099931;28;20461;-74
2023/11/05 07:00:26;;;;;;;7.75;1.77;;;;;;;;;;5090227;28;20457;-74
2023/11/05 07:02:52;;;;;;;5.25;1.55;;;;;;;;;;5100486;28;20091;-73
2023/11/05 07:05:19;;;;;;;7.88;1.35;;;;;;;;;;5078922;28;20545;-74
2023/11/05 07:07:45;;;;;;;6.03;1.40;;;;;;;;;;5069297;28;20071;-74
2023/11/05 07:10:12;;;;;;;3.03;1.20;;;;;;;;;;5095051;28;20122;-74
2023/11/05 07:12:41;;;;;;;4.88;1.35;;;;;;;;;;5096068;28;20051;-74
2023/11/05 07:15:09;;;;;;;5.43;1.48;;;;;;;;;;5101024;28;20446;-74
2023/11/05 07:17:36;;;;;;;6.53;1.45;;;;;;;;;;5089959;28;20079;-74
2023/11/05 07:20:02;;;;;;;4.70;1.40;;;;;;;;;;5078545;28;20047;-74
2023/11/05 07:22:29;;;;;;;8.60;1.30;;;;;;;;;;5079799;28;20046;-74
2023/11/05 07:24:56;;;;;;;3.28;1.98;;;;;;;;;;5082240;28;20717;-74
2023/11/05 07:27:22;;;;;;;5.90;1.58;;;;;;;;;;5094915;28;20048;-74
2023/11/05 07:29:48;;;;;;;13.43;2.05;;;;;;;;;;5098214;28;20132;-74
2023/11/05 07:32:15;;;;;;;7.25;2.00;;;;;;;;;;5091984;28;20736;-74
2023/11/05 07:34:41;;;;;;;3.45;1.45;;;;;;;;;;5097472;28;20108;-74
2023/11/05 07:37:08;;;;;;;7.22;1.65;;;;;;;;;;5075409;28;20481;-74
2023/11/05 07:39:35;;;;;;;4.25;1.50;;;;;;;;;;5098144;28;20122;-74
2023/11/05 07:42:01;;;;;;;4.55;1.20;;;;;;;;;;5067206;28;20093;-73
2023/11/05 07:44:28;;;;;;;5.50;1.50;;;;;;;;;;5077297;28;20052;-74
2023/11/05 07:46:54;;;;;;;3.92;1.52;;;;;;;;;;5076479;28;20173;-74
2023/11/05 07:49:20;;;;;;;4.32;1.45;;;;;;;;;;5096748;28;20156;-74
2023/11/05 07:51:47;;;;;;;6.22;1.48;;;;;;;;;;5094148;28;20044;-74
2023/11/05 07:54:13;;;;;;;5.63;1.60;;;;;;;;;;5093774;28;20091;-74
2023/11/05 07:56:40;;;;;;;3.15;1.50;;;;;;;;;;5098828;28;20054;-74
2023/11/05 07:59:06;;;;;;;3.10;1.50;;;;;;;;;;5092507;28;20051;-74
2023/11/05 08:01:32;;;;;;;4.70;1.60;;;;;;;;;;5075160;28;20424;-74
2023/11/05 08:03:59;;;;;;;5.70;1.88;;;;;;;;;;5096069;28;20058;-74
2023/11/05 08:06:25;;;;;;;8.80;2.13;;;;;;;;;;5082743;28;20067;-74
2023/11/05 08:08:52;;;;;;;6.80;1.95;;;;;;;;;;5101101;28;20087;-74
2023/11/05 08:11:18;;;;;;;6.45;2.33;;;;;;;;;;5103203;28;20104;-74
2023/11/05 08:13:45;;;;;;;4.88;1.90;;;;;;;;;;5096553;28;20039;-74
2023/11/05 08:16:11;;;;;;;5.38;2.22;;;;;;;;;;5074619;28;20472;-74
2023/11/05 08:18:38;;;;;;;7.38;2.50;;;;;;;;;;5080831;28;20047;-74
2023/11/05 08:21:08;;;;;;;5.38;1.88;;;;;;;;;;5096083;28;20056;-74
2023/11/05 08:23:35;;;;;;;5.13;1.85;;;;;;;;;;5083345;28;20500;-74
2023/11/05 08:26:02;;;;;;;8.88;2.50;;;;;;;;;;5082254;28;20101;-74
2023/11/05 08:28:28;;;;;;;8.98;2.38;;;;;;;;;;5089643;28;20044;-74
2023/11/05 08:30:55;;;;;;;8.95;2.50;;;;;;;;;;5075345;28;20062;-74
2023/11/05 08:33:21;;;;;;;6.82;2.28;;;;;;;;;;5102899;27;20044;-74
2023/11/05 08:35:50;;;;;;;7.78;2.30;;;;;;;;;;5097163;27;20128;-74
2023/11/05 08:38:17;;;;;;;10.88;2.65;;;;;;;;;;5104831;28;20047;-74
2023/11/05 08:40:45;;;;;;;7.85;1.85;;;;;;;;;;5087953;28;20385;-74
2023/11/05 08:43:11;;;;;;;5.93;2.20;;;;;;;;;;5087054;28;20650;-75
2023/11/05 08:45:38;;;;;;;9.80;2.70;;;;;;;;;;5085595;28;20314;-74
2023/11/05 08:48:15;;;;;;;7.72;2.00;;;;;;;;;;5093545;28;20108;-74
2023/11/05 08:50:43;;;;;;;10.40;2.05;;;;;;;;;;5093881;28;20465;-74
2023/11/05 08:53:10;;;;;;;10.18;2.60;;;;;;;;;;5101757;28;20044;-73
2023/11/05 08:55:37;;;;;;;8.25;2.40;;;;;;;;;;5103802;28;20335;-73
2023/11/05 08:58:03;;;;;;;8.88;2.30;;;;;;;;;;5100853;28;20246;-73
2023/11/05 09:00:34;;;;;;;8.10;2.10;;;;;;;;;;5092268;28;20077;-74
2023/11/05 09:03:00;;;;;;;7.05;2.30;;;;;;;;;;5098350;28;20063;-75
2023/11/05 09:05:27;;;;;;;4.85;2.13;;;;;;;;;;5100553;28;20055;-74
2023/11/05 09:07:55;;;;;;;8.20;2.05;;;;;;;;;;5087361;28;20101;-74
2023/11/05 09:10:24;;;;;;;7.32;1.92;;;;;;;;;;5092842;28;20048;-74
2023/11/05 09:12:51;;;;;;;8.30;2.20;;;;;;;;;;5081102;28;20051;-76
2023/11/05 09:15:18;;;;;;;8.75;2.40;;;;;;;;;;5072798;28;20141;-74
2023/11/05 09:17:45;;;;;;;8.77;2.42;;;;;;;;;;5072211;28;20124;-73
2023/11/05 09:20:11;;;;;;;7.18;2.65;;;;;;;;;;5085367;28;20051;-73
2023/11/05 09:22:38;;;;;;;10.57;2.70;;;;;;;;;;5097771;28;20553;-74
2023/11/05 09:25:07;;;;;;;10.55;2.65;;;;;;;;;;5067857;28;20068;-74
2023/11/05 09:27:33;;;;;;;;;;;;;;;;;;5097142;28;20591;-74
2023/11/05 09:30:00;;;;;;;7.32;2.70;;;;;;;;;;5085513;28;19974;-75
2023/11/05 09:32:26;;;;;;;9.52;3.35;;;;;;;;;;5102157;28;20050;-74
2023/11/05 09:34:52;;;;;;;7.72;3.00;;;;;;;;;;5080595;28;20043;-75
2023/11/05 09:37:19;;;;;;;14.18;4.10;;;;;;;;;;5078914;28;20052;-74
2023/11/05 09:39:46;;;;;;;14.25;3.63;;;;;;;;;;5084485;27;20159;-74
2023/11/05 09:42:15;;;;;;;9.68;3.35;;;;;;;;;;5086971;28;20125;-74
2023/11/05 09:44:41;;;;;;;8.82;4.07;;;;;;;;;;5097881;27;20048;-74
2023/11/05 09:47:09;;;;;;;6.88;2.88;;;;;;;;;;5076078;28;20104;-74
2023/11/05 09:49:37;;;;;;;9.05;3.50;;;;;;;;;;5082918;28;20047;-74
2023/11/05 09:52:06;;;;;;;9.80;4.35;;;;;;;;;;5102595;28;20046;-74
2023/11/05 09:54:32;;;;;;;8.88;3.80;;;;;;;;;;5088885;28;20071;-75
2023/11/05 09:56:58;;;;;;;14.15;3.85;;;;;;;;;;5112986;27;20563;-74
2023/11/05 09:59:25;;;;;;;14.48;4.18;;;;;;;;;;5110550;27;20132;-74
2023/11/05 10:01:52;;;;;;;10.07;4.07;;;;;;;;;;5091066;28;20042;-74
2023/11/05 10:04:18;;;;;;;10.65;3.80;;;;;;;;;;5114651;28;20043;-74
2023/11/05 10:06:45;;;;;;;10.57;4.30;;;;;;;;;;5091742;28;20051;-75
2023/11/05 10:09:11;;;;;;;6.55;3.22;;;;;;;;;;5087542;28;20309;-75
2023/11/05 10:11:37;;;;;;;10.35;3.33;;;;;;;;;;5096774;28;20467;-74
2023/11/05 10:14:04;;;;;;;11.32;3.60;;;;;;;;;;5083343;28;20067;-74
2023/11/05 10:16:30;;;;;;;12.93;3.20;;;;;;;;;;5078723;28;20044;-74
2023/11/05 10:18:57;;;;;;;7.78;3.10;;;;;;;;;;5086628;28;20047;-74
2023/11/05 10:21:35;;;;;;;8.70;3.30;;;;;;;;;;5093772;28;20048;-74
2023/11/05 10:24:01;;;;;;;8.65;4.05;;;;;;;;;;5071319;28;20052;-74
2023/11/05 10:26:29;;;;;;;8.88;3.78;;;;;;;;;;5070616;28;20039;-74
2023/11/05 10:28:56;;;;;;;10.55;3.53;;;;;;;;;;5094478;28;20398;-73
2023/11/05 10:31:23;;;;;;;10.30;3.97;;;;;;;;;;5081197;28;20062;-73
2023/11/05 10:33:50;;;;;;;13.85;4.00;;;;;;;;;;5085854;28;20043;-73
2023/11/05 10:36:18;;;;;;;9.80;4.20;;;;;;;;;;5071938;28;20698;-73
2023/11/05 10:38:45;;;;;;;14.13;4.28;;;;;;;;;;5078386;28;20048;-72
2023/11/05 10:41:12;;;;;;;11.30;4.25;;;;;;;;;;5082385;28;20051;-73
2023/11/05 10:43:39;;;;;;;12.32;4.63;;;;;;;;;;5094423;28;20048;-73
2023/11/05 10:46:06;;;;;;;9.65;4.63;;;;;;;;;;5100096;28;20538;-72
2023/11/05 10:48:33;;;;;;;9.38;4.10;;;;;;;;;;5082265;28;20083;-72
2023/11/05 10:51:00;;;;;;;6.90;3.67;;;;;;;;;;5100083;28;20881;-72
2023/11/05 10:53:28;;;;;;;9.13;3.75;;;;;;;;;;5096062;28;20410;-73
2023/11/05 10:55:54;;;;;;;8.82;4.35;;;;;;;;;;5090340;28;20059;-72
2023/11/05 10:58:38;;;;;;;11.20;3.80;;;;;;;;;;5096880;28;20043;-72
2023/11/05 11:01:13;;;;;;;10.23;4.30;;;;;;;;;;5095063;28;20039;-73
2023/11/05 11:03:39;;;;;;;7.68;4.60;;;;;;;;;;5082274;28;20044;-73
2023/11/05 11:06:06;;;;;;;10.73;4.13;;;;;;;;;;5075578;28;20055;-73
2023/11/05 11:08:34;;;;;;;10.50;4.00;;;;;;;;;;5088370;28;20680;-73
2023/11/05 11:11:07;;;;;;;8.25;4.05;;;;;;;;;;5094419;28;20047;-73
2023/11/05 11:13:34;;;;;;;8.60;4.50;;;;;;;;;;5080603;28;20040;-72
2023/11/05 11:16:03;;;;;;;10.60;4.63;;;;;;;;;;5086801;28;20420;-73
2023/11/05 11:18:31;;;;;;;8.27;3.80;;;;;;;;;;5082104;28;20582;-73
2023/11/05 11:20:58;;;;;;;6.28;3.80;;;;;;;;;;5099825;28;20079;-73
2023/11/05 11:23:26;;;;;;;8.90;4.28;;;;;;;;;;5094228;27;20051;-73
2023/11/05 11:25:58;;;;;;;6.30;3.70;;;;;;;;;;5101262;28;20047;-73
2023/11/05 11:28:30;;;;;;;6.90;3.10;;;;;;;;;;5101623;28;20136;-74
2023/11/05 11:30:57;;;;;;;8.95;4.03;;;;;;;;;;5075125;28;20055;-73
2023/11/05 11:33:24;;;;;;;7.13;3.03;;;;;;;;;;5086603;28;20056;-74
2023/11/05 11:35:51;;;;;;;8.00;3.67;;;;;;;;;;5091941;27;20487;-73
2023/11/05 11:38:18;;;;;;;9.15;3.22;;;;;;;;;;5086635;28;20069;-75
2023/11/05 11:41:05;;;;;;;10.02;3.75;;;;;;;;;;5091258;28;20044;-75
2023/11/05 11:43:31;;;;;;;12.70;3.60;;;;;;;;;;5107231;28;20052;-74
2023/11/05 11:45:58;;;;;;;13.38;3.22;;;;;;;;;;5108307;27;20032;-74
2023/11/05 11:48:26;;;;;;;10.18;3.22;;;;;;;;;;5117656;27;20048;-75
2023/11/05 11:50:54;;;;;;;9.80;3.53;;;;;;;;;;5098182;28;20054;-75
2023/11/05 11:53:27;;;;;;;12.20;3.67;;;;;;;;;;5093955;27;20040;-75
2023/11/05 11:55:54;;;;;;;12.70;3.35;;;;;;;;;;5115254;27;20298;-75
2023/11/05 11:58:25;;;;;;;10.73;3.45;;;;;;;;;;5097386;28;20066;-75
2023/11/05 12:00:57;;;;;;;6.28;3.03;;;;;;;;;;5110917;28;20050;-75
2023/11/05 12:03:26;;;;;;;12.50;3.47;;;;;;;;;;5081943;28;20485;-77
2023/11/05 12:05:56;;;;;;;12.23;3.33;;;;;;;;;;5097428;28;20134;-77
2023/11/05 12:08:38;;;;;;;8.90;2.92;;;;;;;;;;5091711;28;20071;-77
2023/11/05 12:11:12;;;;;;;12.63;3.53;;;;;;;;;;5081030;28;20047;-77
2023/11/05 12:13:39;;;;;;;10.98;3.17;;;;;;;;;;5089732;28;20531;-78
2023/11/05 12:16:10;;;;;;;11.85;2.92;;;;;;;;;;5087691;28;20126;-77
2023/11/05 12:18:41;;;;;;;10.70;3.30;;;;;;;;;;5105082;28;20150;-77
2023/11/05 12:21:08;;;;;;;7.72;2.28;;;;;;;;;;5078481;28;20060;-77
2023/11/05 12:23:38;;;;;;;10.55;2.63;;;;;;;;;;5087236;27;20067;-77
2023/11/05 12:26:07;;;;;;;9.50;2.58;;;;;;;;;;5099509;28;20051;-78
2023/11/05 12:28:33;;;;;;;;;;;;;;;;;;5095256;28;20055;-77
2023/11/05 12:31:00;;;;;;;;;;;;;;;;;;5098570;28;20009;-77
2023/11/05 12:33:26;;;;;;;;;;;;;;;;;;5088964;28;20428;-76
2023/11/05 12:35:53;;;;;;;;;;;;;;;;;;5098539;28;20011;-76
2023/11/05 12:38:19;;;;;;;;;;;;;;;;;;5083954;28;19924;-76
2023/11/05 12:40:45;;;;;;;;;;;;;;;;;;5086044;28;20039;-76
2023/11/05 12:43:13;;;;;;;;;;;;;;;;;;5101725;27;20432;-76
2023/11/05 12:45:39;;;;;;;;;;;;;;;;;;5101746;28;19942;-77
2023/11/05 12:48:06;;;;;;;;;;;;;;;;;;5106814;27;19923;-77
2023/11/05 12:50:32;;;;;;;;;;;;;;;;;;5088027;28;20021;-75
2023/11/05 12:52:59;;;;;;;;;;;;;;;;;;5106459;28;20004;-76
2023/11/05 12:55:25;;;;;;;;;;;;;;;;;;5097665;28;19924;-76
2023/11/05 12:57:52;;;;;;;;;;;;;;;;;;5075726;28;19961;-77
2023/11/05 13:00:18;;;;;;;;;;;;;;;;;;5078900;28;19923;-76
2023/11/05 13:02:45;;;;;;;;;;;;;;;;;;5108413;27;20010;-76
2023/11/05 13:05:12;;;;;;;;;;;;;;;;;;5084661;28;20018;-76
2023/11/05 13:07:39;;;;;;;;;;;;;;;;;;5102088;28;19924;-76
2023/11/05 13:10:06;;;;;;;;;;;;;;;;;;5078494;28;19923;-76
2023/11/05 13:12:34;;;;;;;;;;;;;;;;;;5104909;28;19923;-76
2023/11/05 13:15:00;;;;;;;;;;;;;;;;;;5076422;28;19924;-76
2023/11/05 13:17:28;;;;;;;;;;;;;;;;;;5098891;28;20022;-77
2023/11/05 13:19:54;;;;;;;;;;;;;;;;;;5097869;28;19923;-77
2023/11/05 13:22:21;;;;;;;;;;;;;;;;;;5086100;28;19971;-77
2023/11/05 13:24:48;;;;;;;;;;;;;;;;;;5073997;28;19923;-76
2023/11/05 13:27:15;;;;;;;;;;;;;;;;;;5104647;28;20347;-77
2023/11/05 13:29:41;;;;;;;;;;;;;;;;;;5089728;28;19973;-77
2023/11/05 13:32:09;;;;;;;;;;;;;;;;;;5089738;28;20793;-77
2023/11/05 13:34:35;;;;;;;;;;;;;;;;;;5102378;28;20002;-76
2023/11/05 13:37:02;;;;;;;;;;;;;;;;;;5088078;28;20525;-76
2023/11/05 13:39:28;;;;;;;;;;;;;;;;;;5106607;28;20040;-77
2023/11/05 13:41:55;;;;;;;;;;;;;;;;;;5098205;28;20443;-76
2023/11/05 13:44:22;;;;;;;;;;;;;;;;;;5090345;28;19924;-76
2023/11/05 13:46:48;;;;;;;;;;;;;;;;;;5087736;28;19934;-77
2023/11/05 13:49:15;;;;;;;;;;;;;;;;;;5104487;28;19985;-76
2023/11/05 13:51:44;;;;;;;;;;;;;;;;;;5072810;27;19924;-75
2023/11/05 13:54:11;;;;;;;;;;;;;;;;;;5096858;28;19920;-75
2023/11/05 13:56:38;;;;;;;;;;;;;;;;;;5071480;28;20567;-75
2023/11/05 13:59:04;;;;;;;;;;;;;;;;;;5085250;28;19946;-74
2023/11/05 14:01:32;;;;;;;;;;;;;;;;;;5077264;28;19994;-73
2023/11/05 14:03:58;;;;;;;;;;;;;;;;;;5093093;28;19924;-75
2023/11/05 14:06:25;;;;;;;;;;;;;;;;;;5071953;28;19924;-74
2023/11/05 14:08:51;;;;;;;;;;;;;;;;;;5083242;28;19975;-74
2023/11/05 14:11:19;;;;;;;;;;;;;;;;;;5094399;28;19934;-75
2023/11/05 14:13:45;;;;;;;;;;;;;;;;;;5090996;28;19924;-74
2023/11/05 14:16:11;;;;;;;;;;;;;;;;;;5085354;28;19924;-74
2023/11/05 14:18:40;;;;;;;;;;;;;;;;;;5092456;28;20038;-74
2023/11/05 14:21:06;;;;;;;;;;;;;;;;;;5095706;27;19923;-74
2023/11/05 14:23:33;;;;;;;;;;;;;;;;;;5094563;28;20337;-75
2023/11/05 14:25:59;;;;;;;;;;;;;;;;;;5095842;28;19924;-75
2023/11/05 14:28:26;;;;;;;;;;;;;;;;;;5094455;28;19930;-75
2023/11/05 14:30:54;;;;;;;;;;;;;;;;;;5086550;28;19923;-73
2023/11/05 14:33:20;;;;;;;;;;;;;;;;;;5092800;28;19931;-74
2023/11/05 14:35:47;;;;;;;;;;;;;;;;;;5092517;28;19931;-74
2023/11/05 14:38:13;;;;;;;;;;;;;;;;;;5068770;28;19927;-74
2023/11/05 14:40:39;;;;;;;;;;;;;;;;;;5099111;28;20018;-74
2023/11/05 14:43:07;;;;;;;;;;;;;;;;;;5088565;28;19959;-75
2023/11/05 14:45:33;;;;;;;;;;;;;;;;;;5092843;28;19959;-75
2023/11/05 14:48:01;;;;;;;;;;;;;;;;;;5081766;28;19978;-76
2023/11/05 14:50:29;;;;;;;;;;;;;;;;;;5096596;28;20014;-76
2023/11/05 14:52:59;;;;;;;;;;;;;;;;;;5076989;28;19924;-75
2023/11/05 14:55:25;;;;;;;;;;;;;;;;;;5075389;28;19923;-75
2023/11/05 14:57:52;;;;;;;;;;;;;;;;;;5091468;28;19924;-75
2023/11/05 15:00:19;;;;;;;;;;;;;;;;;;5094728;28;19982;-75